Hafnia Torres — 9V3283 — position and weather

sailwx.info

Track history (hours):
 
Tides and Currents Weather Stations Pressure Air Temp Water Temp Dewpoint Dewpoint Depression Visibility Wind Speed Wind Dir Waves Ship Positions

Hafnia Torres

Last reported at 2017-Nov-23 16:24 UTC. Time now 2017-Nov-25 00:00 UTC.
Position N 38°00' E 025°35'.

Length 184 m; draft 7.8 m.

Type: Tanker. MMSI: 566598000.

Date/timePositionNaut miles runAvg speedWind from/ knotsBaromVisibWave heightAir tempDewpointWater temp
2017-Nov-23 16:24N 38°00' E 025°35'4 9.3
2017-Nov-23 16:00N 37°57' E 025°37'5 9.4
2017-Nov-23 15:30N 37°52' E 025°39'5 9.4
2017-Nov-23 15:00N 37°48' E 025°41'5 9.5
2017-Nov-23 14:30N 37°43' E 025°43'5 9.7
2017-Nov-23 14:00N 37°39' E 025°45'6 9.6
2017-Nov-23 13:23N 37°33' E 025°47'4 9.9
2017-Nov-23 13:00N 37°29' E 025°48'4 8.9
2017-Nov-23 12:30N 37°26' E 025°51'5 9.6
2017-Nov-23 12:00N 37°24' E 025°57'5 9.6
2017-Nov-23 11:30N 37°21' E 026°02'5 9.4
2017-Nov-23 11:00N 37°19' E 026°07'5 9.4
2017-Nov-23 10:30N 37°16' E 026°12'5 9.5
2017-Nov-23 10:00N 37°14' E 026°17'5 9.6
2017-Nov-23 09:30N 37°12' E 026°22'5 9.9
2017-Nov-23 09:00N 37°09' E 026°28'5 9.9
2017-Nov-23 08:30N 37°07' E 026°33'5 9.6
2017-Nov-23 07:59N 37°03' E 026°38'5 9.8
2017-Nov-23 07:30N 36°59' E 026°40'5 9.5
2017-Nov-23 06:59N 36°54' E 026°41'5 9.7
2017-Nov-23 06:30N 36°50' E 026°42'5 9.8
2017-Nov-23 06:00N 36°45' E 026°42'5 9.6
2017-Nov-23 05:30N 36°40' E 026°43'5 9.6
2017-Nov-23 05:00N 36°35' E 026°44'510.1
2017-Nov-23 04:30N 36°30' E 026°46'  
2017-Nov-18 04:34N 33°47' E 033°54'110.2
2017-Nov-18 04:30N 33°47' E 033°53'3811.0
2017-Nov-18 01:02N 33°56' E 033°09'811.1
2017-Nov-18 00:21N 33°58' E 032°60'6011.0
2017-Nov-17 18:54N 34°12' E 031°50'1411.2
2017-Nov-17 17:39N 34°16' E 031°33'1710.9
2017-Nov-17 16:08N 34°20' E 031°14'41211.5
2017-Nov-16 04:17N 37°33' E 023°44'311.7
2017-Nov-16 03:59N 37°36' E 023°44'611.7
2017-Nov-16 03:31N 37°41' E 023°41'611.9
2017-Nov-16 03:00N 37°47' E 023°38'611.2
2017-Nov-16 02:30N 37°50' E 023°32'611.7
2017-Nov-16 02:01N 37°51' E 023°25'611.8
2017-Nov-16 01:31N 37°52' E 023°17'611.8
2017-Nov-16 01:01N 37°53' E 023°10'4 8.5
2017-Nov-16 00:31N 37°54' E 023°05'1 1.5
2017-Nov-16 00:00N 37°55' E 023°05'0 0.0
2017-Nov-15 23:30N 37°55' E 023°05'0 0.0
2017-Nov-15 23:00N 37°55' E 023°05'0 0.0
2017-Nov-15 22:30N 37°55' E 023°05'0 0.0
2017-Nov-15 22:00N 37°55' E 023°05'0 0.0
2017-Nov-15 21:30N 37°55' E 023°05'0 0.0
2017-Nov-15 21:00N 37°55' E 023°05'0 0.0
2017-Nov-15 20:30N 37°55' E 023°05'0 0.0
2017-Nov-15 20:00N 37°55' E 023°05'0 0.0
2017-Nov-15 19:30N 37°55' E 023°05'0 0.0
2017-Nov-15 19:00N 37°55' E 023°05'0 0.0
2017-Nov-15 18:30N 37°55' E 023°05'0 0.0
2017-Nov-15 18:00N 37°55' E 023°05'0 0.0
2017-Nov-15 17:30N 37°55' E 023°05'0 0.0
2017-Nov-15 17:00N 37°55' E 023°05'0 0.0
2017-Nov-15 16:30N 37°55' E 023°05'0 0.0
2017-Nov-15 16:00N 37°55' E 023°05'0 0.0
2017-Nov-15 15:30N 37°55' E 023°05'0 0.0
2017-Nov-15 15:00N 37°55' E 023°05'0 0.0
2017-Nov-15 14:30N 37°55' E 023°05'0 0.0
2017-Nov-15 14:00N 37°55' E 023°05'0 0.0
2017-Nov-15 13:30N 37°55' E 023°05'0 0.0
2017-Nov-15 13:00N 37°55' E 023°05'0 0.0
2017-Nov-15 12:30N 37°55' E 023°05'0 0.0
2017-Nov-15 12:00N 37°55' E 023°05'0 0.0
2017-Nov-15 11:30N 37°55' E 023°05'0 0.0
2017-Nov-15 11:00N 37°55' E 023°05'0 0.0
2017-Nov-15 10:27N 37°55' E 023°05'0 0.0
2017-Nov-15 10:00N 37°55' E 023°05'0 0.0
2017-Nov-15 09:30N 37°55' E 023°05'0 0.0
2017-Nov-15 09:00N 37°55' E 023°05'0 0.0
2017-Nov-15 08:30N 37°55' E 023°05'0 0.0
2017-Nov-15 08:00N 37°55' E 023°05'0 0.0
2017-Nov-15 07:30N 37°55' E 023°05'0 0.0
2017-Nov-15 07:00N 37°55' E 023°05'0 0.0
2017-Nov-15 06:30N 37°55' E 023°05'0 0.0
2017-Nov-15 06:00N 37°55' E 023°05'0 0.0
2017-Nov-15 05:30N 37°55' E 023°05'0 0.0
2017-Nov-15 05:00N 37°55' E 023°05'0 0.0
2017-Nov-15 04:30N 37°55' E 023°05'0 0.0
2017-Nov-15 04:00N 37°55' E 023°05'0 0.0
2017-Nov-15 03:30N 37°55' E 023°05'0 0.0
2017-Nov-15 03:00N 37°55' E 023°05'0 0.0
2017-Nov-15 02:30N 37°55' E 023°05'0 0.0
2017-Nov-15 02:00N 37°55' E 023°05'0 0.0
2017-Nov-15 01:30N 37°55' E 023°05'0 0.0
2017-Nov-15 01:00N 37°55' E 023°05'0 0.0
2017-Nov-15 00:30N 37°55' E 023°05'0 0.0
2017-Nov-15 00:00N 37°55' E 023°05'0 0.0
2017-Nov-14 23:30N 37°55' E 023°05'0 0.0
2017-Nov-14 23:00N 37°55' E 023°05'0 0.0
2017-Nov-14 22:30N 37°55' E 023°05'0 0.0
2017-Nov-14 22:00N 37°55' E 023°05'0 0.0
2017-Nov-14 21:30N 37°55' E 023°05'0 0.0
2017-Nov-14 21:00N 37°55' E 023°05'0 0.0
2017-Nov-14 20:30N 37°55' E 023°05'0 0.0
2017-Nov-14 20:00N 37°55' E 023°05'0 0.0
2017-Nov-14 19:30N 37°55' E 023°05'0 0.0
2017-Nov-14 19:00N 37°55' E 023°05'0 0.0
2017-Nov-14 18:30N 37°55' E 023°05'0 0.0
2017-Nov-14 18:00N 37°55' E 023°05'0 0.0
2017-Nov-14 17:30N 37°55' E 023°05'0 0.0
2017-Nov-14 17:00N 37°55' E 023°05'0 0.0
2017-Nov-14 16:30N 37°55' E 023°05'0 0.0
2017-Nov-14 16:00N 37°55' E 023°05'0 0.0
2017-Nov-14 15:30N 37°55' E 023°05'0 0.0
2017-Nov-14 15:00N 37°55' E 023°05'0 0.0
2017-Nov-14 14:30N 37°55' E 023°05'0 0.0
2017-Nov-14 14:00N 37°55' E 023°05'0 0.0
2017-Nov-14 13:30N 37°55' E 023°05'0 0.0
2017-Nov-14 13:00N 37°55' E 023°05'0 0.0
2017-Nov-14 12:30N 37°55' E 023°05'0 0.1
2017-Nov-14 12:00N 37°55' E 023°05'1 1.8
2017-Nov-14 11:30N 37°54' E 023°06'0 0.7
2017-Nov-14 10:58N 37°55' E 023°07'0 0.1
2017-Nov-14 10:28N 37°55' E 023°07'0 0.0
2017-Nov-14 09:58N 37°55' E 023°07'0 0.0
2017-Nov-14 09:28N 37°55' E 023°07'0 0.1
2017-Nov-14 08:58N 37°55' E 023°07'0 0.1
2017-Nov-14 08:28N 37°55' E 023°07'0 0.0
2017-Nov-14 07:58N 37°55' E 023°07'0 0.0
2017-Nov-14 07:28N 37°55' E 023°07'0 0.1
2017-Nov-14 06:58N 37°54' E 023°07'0 0.0
2017-Nov-14 06:28N 37°54' E 023°07'0 0.0
2017-Nov-14 05:58N 37°54' E 023°07'0 0.0
2017-Nov-14 05:28N 37°54' E 023°07'0 0.1
2017-Nov-14 04:58N 37°54' E 023°07'0 0.1
2017-Nov-14 04:28N 37°54' E 023°07'0 0.1
2017-Nov-14 03:58N 37°54' E 023°07'0 0.1
2017-Nov-14 03:28N 37°54' E 023°07'0 0.2
2017-Nov-14 02:58N 37°55' E 023°07'0 0.0
2017-Nov-14 02:28N 37°55' E 023°07'0 0.1
2017-Nov-14 01:58N 37°55' E 023°07'0 0.0
2017-Nov-14 01:28N 37°55' E 023°07'0 0.1
2017-Nov-14 00:58N 37°55' E 023°07'0 0.0
2017-Nov-14 00:28N 37°55' E 023°07'0 0.1
2017-Nov-13 23:58N 37°55' E 023°07'0 0.0
2017-Nov-13 23:28N 37°55' E 023°07'0 0.0
2017-Nov-13 22:58N 37°55' E 023°07'0 0.0
2017-Nov-13 22:28N 37°55' E 023°07'0 0.0
2017-Nov-13 21:58N 37°55' E 023°07'  
Track history (hours):
 
Tides and Currents Weather Stations Pressure Air Temp Water Temp Dewpoint Dewpoint Depression Visibility Wind Speed Wind Dir Waves Ship Positions

Hafnia Torres

Last reported at 2017-Nov-23 16:24 UTC. Time now 2017-Nov-25 00:00 UTC.
Position N 38°00' E 025°35'.

Length 184 m; draft 7.8 m.

Type: Tanker. MMSI: 566598000.

Date/timePositionNaut miles runAvg speedWind from/ knotsBaromVisibWave heightAir tempDewpointWater temp
2017-Nov-23 16:24N 38°00' E 025°35'4 9.3
2017-Nov-23 16:00N 37°57' E 025°37'5 9.4
2017-Nov-23 15:30N 37°52' E 025°39'5 9.4
2017-Nov-23 15:00N 37°48' E 025°41'5 9.5
2017-Nov-23 14:30N 37°43' E 025°43'5 9.7
2017-Nov-23 14:00N 37°39' E 025°45'6 9.6
2017-Nov-23 13:23N 37°33' E 025°47'4 9.9
2017-Nov-23 13:00N 37°29' E 025°48'4 8.9
2017-Nov-23 12:30N 37°26' E 025°51'5 9.6
2017-Nov-23 12:00N 37°24' E 025°57'5 9.6
2017-Nov-23 11:30N 37°21' E 026°02'5 9.4
2017-Nov-23 11:00N 37°19' E 026°07'5 9.4
2017-Nov-23 10:30N 37°16' E 026°12'5 9.5
2017-Nov-23 10:00N 37°14' E 026°17'5 9.6
2017-Nov-23 09:30N 37°12' E 026°22'5 9.9
2017-Nov-23 09:00N 37°09' E 026°28'5 9.9
2017-Nov-23 08:30N 37°07' E 026°33'5 9.6
2017-Nov-23 07:59N 37°03' E 026°38'5 9.8
2017-Nov-23 07:30N 36°59' E 026°40'5 9.5
2017-Nov-23 06:59N 36°54' E 026°41'5 9.7
2017-Nov-23 06:30N 36°50' E 026°42'5 9.8
2017-Nov-23 06:00N 36°45' E 026°42'5 9.6
2017-Nov-23 05:30N 36°40' E 026°43'5 9.6
2017-Nov-23 05:00N 36°35' E 026°44'510.1
2017-Nov-23 04:30N 36°30' E 026°46'  
2017-Nov-18 04:34N 33°47' E 033°54'110.2
2017-Nov-18 04:30N 33°47' E 033°53'3811.0
2017-Nov-18 01:02N 33°56' E 033°09'811.1
2017-Nov-18 00:21N 33°58' E 032°60'6011.0
2017-Nov-17 18:54N 34°12' E 031°50'1411.2
2017-Nov-17 17:39N 34°16' E 031°33'1710.9
2017-Nov-17 16:08N 34°20' E 031°14'41211.5
2017-Nov-16 04:17N 37°33' E 023°44'311.7
2017-Nov-16 03:59N 37°36' E 023°44'611.7
2017-Nov-16 03:31N 37°41' E 023°41'611.9
2017-Nov-16 03:00N 37°47' E 023°38'611.2
2017-Nov-16 02:30N 37°50' E 023°32'611.7
2017-Nov-16 02:01N 37°51' E 023°25'611.8
2017-Nov-16 01:31N 37°52' E 023°17'611.8
2017-Nov-16 01:01N 37°53' E 023°10'4 8.5
2017-Nov-16 00:31N 37°54' E 023°05'1 1.5
2017-Nov-16 00:00N 37°55' E 023°05'0 0.0
2017-Nov-15 23:30N 37°55' E 023°05'0 0.0
2017-Nov-15 23:00N 37°55' E 023°05'0 0.0
2017-Nov-15 22:30N 37°55' E 023°05'0 0.0
2017-Nov-15 22:00N 37°55' E 023°05'0 0.0
2017-Nov-15 21:30N 37°55' E 023°05'0 0.0
2017-Nov-15 21:00N 37°55' E 023°05'0 0.0
2017-Nov-15 20:30N 37°55' E 023°05'0 0.0
2017-Nov-15 20:00N 37°55' E 023°05'0 0.0
2017-Nov-15 19:30N 37°55' E 023°05'0 0.0
2017-Nov-15 19:00N 37°55' E 023°05'0 0.0
2017-Nov-15 18:30N 37°55' E 023°05'0 0.0
2017-Nov-15 18:00N 37°55' E 023°05'0 0.0
2017-Nov-15 17:30N 37°55' E 023°05'0 0.0
2017-Nov-15 17:00N 37°55' E 023°05'0 0.0
2017-Nov-15 16:30N 37°55' E 023°05'0 0.0
2017-Nov-15 16:00N 37°55' E 023°05'0 0.0
2017-Nov-15 15:30N 37°55' E 023°05'0 0.0
2017-Nov-15 15:00N 37°55' E 023°05'0 0.0
2017-Nov-15 14:30N 37°55' E 023°05'0 0.0
2017-Nov-15 14:00N 37°55' E 023°05'0 0.0
2017-Nov-15 13:30N 37°55' E 023°05'0 0.0
2017-Nov-15 13:00N 37°55' E 023°05'0 0.0
2017-Nov-15 12:30N 37°55' E 023°05'0 0.0
2017-Nov-15 12:00N 37°55' E 023°05'0 0.0
2017-Nov-15 11:30N 37°55' E 023°05'0 0.0
2017-Nov-15 11:00N 37°55' E 023°05'0 0.0
2017-Nov-15 10:27N 37°55' E 023°05'0 0.0
2017-Nov-15 10:00N 37°55' E 023°05'0 0.0
2017-Nov-15 09:30N 37°55' E 023°05'0 0.0
2017-Nov-15 09:00N 37°55' E 023°05'0 0.0
2017-Nov-15 08:30N 37°55' E 023°05'0 0.0
2017-Nov-15 08:00N 37°55' E 023°05'0 0.0
2017-Nov-15 07:30N 37°55' E 023°05'0 0.0
2017-Nov-15 07:00N 37°55' E 023°05'0 0.0
2017-Nov-15 06:30N 37°55' E 023°05'0 0.0
2017-Nov-15 06:00N 37°55' E 023°05'0 0.0
2017-Nov-15 05:30N 37°55' E 023°05'0 0.0
2017-Nov-15 05:00N 37°55' E 023°05'0 0.0
2017-Nov-15 04:30N 37°55' E 023°05'0 0.0
2017-Nov-15 04:00N 37°55' E 023°05'0 0.0
2017-Nov-15 03:30N 37°55' E 023°05'0 0.0
2017-Nov-15 03:00N 37°55' E 023°05'0 0.0
2017-Nov-15 02:30N 37°55' E 023°05'0 0.0
2017-Nov-15 02:00N 37°55' E 023°05'0 0.0
2017-Nov-15 01:30N 37°55' E 023°05'0 0.0
2017-Nov-15 01:00N 37°55' E 023°05'0 0.0
2017-Nov-15 00:30N 37°55' E 023°05'0 0.0
2017-Nov-15 00:00N 37°55' E 023°05'0 0.0
2017-Nov-14 23:30N 37°55' E 023°05'0 0.0
2017-Nov-14 23:00N 37°55' E 023°05'0 0.0
2017-Nov-14 22:30N 37°55' E 023°05'0 0.0
2017-Nov-14 22:00N 37°55' E 023°05'0 0.0
2017-Nov-14 21:30N 37°55' E 023°05'0 0.0
2017-Nov-14 21:00N 37°55' E 023°05'0 0.0
2017-Nov-14 20:30N 37°55' E 023°05'0 0.0
2017-Nov-14 20:00N 37°55' E 023°05'0 0.0
2017-Nov-14 19:30N 37°55' E 023°05'0 0.0
2017-Nov-14 19:00N 37°55' E 023°05'0 0.0
2017-Nov-14 18:30N 37°55' E 023°05'0 0.0
2017-Nov-14 18:00N 37°55' E 023°05'0 0.0
2017-Nov-14 17:30N 37°55' E 023°05'0 0.0
2017-Nov-14 17:00N 37°55' E 023°05'0 0.0
2017-Nov-14 16:30N 37°55' E 023°05'0 0.0
2017-Nov-14 16:00N 37°55' E 023°05'0 0.0
2017-Nov-14 15:30N 37°55' E 023°05'0 0.0
2017-Nov-14 15:00N 37°55' E 023°05'0 0.0
2017-Nov-14 14:30N 37°55' E 023°05'0 0.0
2017-Nov-14 14:00N 37°55' E 023°05'0 0.0
2017-Nov-14 13:30N 37°55' E 023°05'0 0.0
2017-Nov-14 13:00N 37°55' E 023°05'0 0.0
2017-Nov-14 12:30N 37°55' E 023°05'0 0.1
2017-Nov-14 12:00N 37°55' E 023°05'1 1.8
2017-Nov-14 11:30N 37°54' E 023°06'0 0.7
2017-Nov-14 10:58N 37°55' E 023°07'0 0.1
2017-Nov-14 10:28N 37°55' E 023°07'0 0.0
2017-Nov-14 09:58N 37°55' E 023°07'0 0.0
2017-Nov-14 09:28N 37°55' E 023°07'0 0.1
2017-Nov-14 08:58N 37°55' E 023°07'0 0.1
2017-Nov-14 08:28N 37°55' E 023°07'0 0.0
2017-Nov-14 07:58N 37°55' E 023°07'0 0.0
2017-Nov-14 07:28N 37°55' E 023°07'0 0.1
2017-Nov-14 06:58N 37°54' E 023°07'0 0.0
2017-Nov-14 06:28N 37°54' E 023°07'0 0.0
2017-Nov-14 05:58N 37°54' E 023°07'0 0.0
2017-Nov-14 05:28N 37°54' E 023°07'0 0.1
2017-Nov-14 04:58N 37°54' E 023°07'0 0.1
2017-Nov-14 04:28N 37°54' E 023°07'0 0.1
2017-Nov-14 03:58N 37°54' E 023°07'0 0.1
2017-Nov-14 03:28N 37°54' E 023°07'0 0.2
2017-Nov-14 02:58N 37°55' E 023°07'0 0.0
2017-Nov-14 02:28N 37°55' E 023°07'0 0.1
2017-Nov-14 01:58N 37°55' E 023°07'0 0.0
2017-Nov-14 01:28N 37°55' E 023°07'0 0.1
2017-Nov-14 00:58N 37°55' E 023°07'0 0.0
2017-Nov-14 00:28N 37°55' E 023°07'0 0.1
2017-Nov-13 23:58N 37°55' E 023°07'0 0.0
2017-Nov-13 23:28N 37°55' E 023°07'0 0.0
2017-Nov-13 22:58N 37°55' E 023°07'0 0.0
2017-Nov-13 22:28N 37°55' E 023°07'0 0.0
2017-Nov-13 21:58N 37°55' E 023°07'  

Dump ship's entire track history